sensor_id;sensor_type;location;lat;lon;timestamp;P1;durP1;ratioP1;P2;durP2;ratioP2
47519;SDS011;33252;48.122;11.538;2024-03-23T00:54:08;3.22;;;1.00;;
47519;SDS011;33252;48.122;11.538;2024-03-23T00:56:33;3.55;;;1.02;;
47519;SDS011;33252;48.122;11.538;2024-03-23T00:58:59;1.60;;;0.95;;
47519;SDS011;33252;48.122;11.538;2024-03-23T01:01:24;1.85;;;1.08;;
47519;SDS011;33252;48.122;11.538;2024-03-23T01:03:50;1.90;;;1.08;;
47519;SDS011;33252;48.122;11.538;2024-03-23T01:06:15;2.35;;;1.35;;
47519;SDS011;33252;48.122;11.538;2024-03-23T01:08:41;3.00;;;1.42;;
47519;SDS011;33252;48.122;11.538;2024-03-23T01:11:06;2.28;;;0.80;;
47519;SDS011;33252;48.122;11.538;2024-03-23T01:13:33;1.70;;;0.80;;
47519;SDS011;33252;48.122;11.538;2024-03-23T01:15:58;2.45;;;1.10;;
47519;SDS011;33252;48.122;11.538;2024-03-23T01:18:24;3.00;;;1.10;;
47519;SDS011;33252;48.122;11.538;2024-03-23T01:20:51;2.72;;;1.13;;
47519;SDS011;33252;48.122;11.538;2024-03-23T01:23:17;2.47;;;1.17;;
47519;SDS011;33252;48.122;11.538;2024-03-23T01:25:42;2.65;;;1.08;;
47519;SDS011;33252;48.122;11.538;2024-03-23T01:28:08;3.03;;;0.90;;
47519;SDS011;33252;48.122;11.538;2024-03-23T01:30:34;2.65;;;1.10;;
47519;SDS011;33252;48.122;11.538;2024-03-23T01:33:00;1.90;;;1.00;;
47519;SDS011;33252;48.122;11.538;2024-03-23T01:35:26;2.05;;;1.10;;
47519;SDS011;33252;48.122;11.538;2024-03-23T01:37:51;2.88;;;1.13;;
47519;SDS011;33252;48.122;11.538;2024-03-23T01:40:17;5.35;;;1.38;;
47519;SDS011;33252;48.122;11.538;2024-03-23T01:42:42;2.10;;;0.95;;
47519;SDS011;33252;48.122;11.538;2024-03-23T01:45:20;2.42;;;1.38;;
47519;SDS011;33252;48.122;11.538;2024-03-23T01:47:45;3.20;;;1.48;;
47519;SDS011;33252;48.122;11.538;2024-03-23T01:50:11;3.35;;;1.20;;
47519;SDS011;33252;48.122;11.538;2024-03-23T01:52:36;2.08;;;1.30;;
47519;SDS011;33252;48.122;11.538;2024-03-23T01:55:02;3.88;;;1.70;;
47519;SDS011;33252;48.122;11.538;2024-03-23T01:57:28;2.45;;;1.30;;
47519;SDS011;33252;48.122;11.538;2024-03-23T01:59:53;1.98;;;1.20;;
47519;SDS011;33252;48.122;11.538;2024-03-23T02:02:19;1.52;;;0.95;;
47519;SDS011;33252;48.122;11.538;2024-03-23T02:04:44;2.92;;;1.13;;
47519;SDS011;33252;48.122;11.538;2024-03-23T02:07:10;3.20;;;0.93;;
47519;SDS011;33252;48.122;11.538;2024-03-23T02:09:36;2.28;;;1.13;;
47519;SDS011;33252;48.122;11.538;2024-03-23T02:12:01;2.90;;;0.80;;
47519;SDS011;33252;48.122;11.538;2024-03-23T02:14:28;2.05;;;0.88;;
47519;SDS011;33252;48.122;11.538;2024-03-23T02:16:53;2.03;;;0.98;;
47519;SDS011;33252;48.122;11.538;2024-03-23T02:19:19;2.25;;;1.02;;
47519;SDS011;33252;48.122;11.538;2024-03-23T02:21:44;3.35;;;1.17;;
47519;SDS011;33252;48.122;11.538;2024-03-23T02:24:12;3.22;;;1.00;;
47519;SDS011;33252;48.122;11.538;2024-03-23T02:26:37;1.42;;;1.00;;
47519;SDS011;33252;48.122;11.538;2024-03-23T02:29:03;1.77;;;0.85;;
47519;SDS011;33252;48.122;11.538;2024-03-23T02:31:28;2.65;;;1.30;;
47519;SDS011;33252;48.122;11.538;2024-03-23T02:33:54;1.83;;;1.27;;
47519;SDS011;33252;48.122;11.538;2024-03-23T02:36:19;2.53;;;1.25;;
47519;SDS011;33252;48.122;11.538;2024-03-23T02:38:46;3.17;;;1.17;;
47519;SDS011;33252;48.122;11.538;2024-03-23T02:41:11;3.33;;;0.90;;
47519;SDS011;33252;48.122;11.538;2024-03-23T02:43:37;2.28;;;1.00;;
47519;SDS011;33252;48.122;11.538;2024-03-23T02:46:03;2.03;;;1.10;;
47519;SDS011;33252;48.122;11.538;2024-03-23T02:48:29;2.03;;;1.00;;
47519;SDS011;33252;48.122;11.538;2024-03-23T02:50:55;2.78;;;1.30;;
47519;SDS011;33252;48.122;11.538;2024-03-23T02:53:20;2.95;;;1.13;;
47519;SDS011;33252;48.122;11.538;2024-03-23T02:55:46;2.75;;;1.02;;
47519;SDS011;33252;48.122;11.538;2024-03-23T02:58:12;1.85;;;1.10;;
47519;SDS011;33252;48.122;11.538;2024-03-23T03:00:37;2.17;;;0.95;;
47519;SDS011;33252;48.122;11.538;2024-03-23T03:03:03;2.33;;;1.33;;
47519;SDS011;33252;48.122;11.538;2024-03-23T03:05:29;1.83;;;1.20;;
47519;SDS011;33252;48.122;11.538;2024-03-23T03:07:54;2.92;;;1.23;;
47519;SDS011;33252;48.122;11.538;2024-03-23T03:10:20;1.70;;;1.10;;
47519;SDS011;33252;48.122;11.538;2024-03-23T03:12:45;2.47;;;1.65;;
47519;SDS011;33252;48.122;11.538;2024-03-23T03:15:11;2.17;;;1.77;;
47519;SDS011;33252;48.122;11.538;2024-03-23T03:17:38;2.25;;;1.38;;
47519;SDS011;33252;48.122;11.538;2024-03-23T03:20:03;1.90;;;1.15;;
47519;SDS011;33252;48.122;11.538;2024-03-23T03:22:30;4.10;;;1.35;;
47519;SDS011;33252;48.122;11.538;2024-03-23T03:24:55;3.33;;;1.60;;
47519;SDS011;33252;48.122;11.538;2024-03-23T03:27:21;3.33;;;1.27;;
47519;SDS011;33252;48.122;11.538;2024-03-23T03:29:47;4.47;;;1.50;;
47519;SDS011;33252;48.122;11.538;2024-03-23T03:32:13;3.90;;;1.67;;
47519;SDS011;33252;48.122;11.538;2024-03-23T03:34:38;3.00;;;1.55;;
47519;SDS011;33252;48.122;11.538;2024-03-23T03:37:04;4.47;;;1.88;;
47519;SDS011;33252;48.122;11.538;2024-03-23T03:39:29;5.70;;;1.85;;
47519;SDS011;33252;48.122;11.538;2024-03-23T03:41:55;3.95;;;1.60;;
47519;SDS011;33252;48.122;11.538;2024-03-23T03:44:20;2.85;;;1.65;;
47519;SDS011;33252;48.122;11.538;2024-03-23T03:46:46;3.35;;;1.85;;
47519;SDS011;33252;48.122;11.538;2024-03-23T03:49:12;2.80;;;1.45;;
47519;SDS011;33252;48.122;11.538;2024-03-23T03:51:37;3.08;;;1.90;;
47519;SDS011;33252;48.122;11.538;2024-03-23T03:54:03;3.47;;;1.33;;
47519;SDS011;33252;48.122;11.538;2024-03-23T03:56:28;3.38;;;2.05;;
47519;SDS011;33252;48.122;11.538;2024-03-23T03:58:54;4.30;;;1.70;;
47519;SDS011;33252;48.122;11.538;2024-03-23T04:01:19;3.28;;;1.63;;
47519;SDS011;33252;48.122;11.538;2024-03-23T04:03:45;2.65;;;1.50;;
47519;SDS011;33252;48.122;11.538;2024-03-23T04:06:11;3.05;;;1.65;;
47519;SDS011;33252;48.122;11.538;2024-03-23T04:08:37;2.20;;;1.27;;
47519;SDS011;33252;48.122;11.538;2024-03-23T04:11:02;1.77;;;1.30;;
47519;SDS011;33252;48.122;11.538;2024-03-23T04:13:28;2.80;;;1.55;;
47519;SDS011;33252;48.122;11.538;2024-03-23T04:15:56;2.20;;;1.70;;
47519;SDS011;33252;48.122;11.538;2024-03-23T04:18:22;2.05;;;1.65;;
47519;SDS011;33252;48.122;11.538;2024-03-23T04:20:49;3.28;;;1.35;;
47519;SDS011;33252;48.122;11.538;2024-03-23T04:23:14;2.58;;;1.25;;
47519;SDS011;33252;48.122;11.538;2024-03-23T04:25:40;4.78;;;1.27;;
47519;SDS011;33252;48.122;11.538;2024-03-23T04:28:05;2.22;;;1.10;;
47519;SDS011;33252;48.122;11.538;2024-03-23T04:30:31;2.38;;;1.17;;
47519;SDS011;33252;48.122;11.538;2024-03-23T04:32:57;1.60;;;1.25;;
47519;SDS011;33252;48.122;11.538;2024-03-23T04:35:23;3.38;;;1.00;;
47519;SDS011;33252;48.122;11.538;2024-03-23T04:37:52;2.00;;;1.30;;
47519;SDS011;33252;48.122;11.538;2024-03-23T04:40:18;2.03;;;0.90;;
47519;SDS011;33252;48.122;11.538;2024-03-23T04:42:44;1.80;;;1.00;;
47519;SDS011;33252;48.122;11.538;2024-03-23T04:45:09;3.33;;;1.15;;
47519;SDS011;33252;48.122;11.538;2024-03-23T04:47:38;3.42;;;1.10;;
47519;SDS011;33252;48.122;11.538;2024-03-23T04:50:04;3.67;;;0.90;;
47519;SDS011;33252;48.122;11.538;2024-03-23T04:52:30;1.60;;;1.00;;
47519;SDS011;33252;48.122;11.538;2024-03-23T04:54:55;2.95;;;1.25;;
47519;SDS011;33252;48.122;11.538;2024-03-23T04:57:21;1.50;;;1.23;;
47519;SDS011;33252;48.122;11.538;2024-03-23T04:59:47;2.60;;;1.20;;
47519;SDS011;33252;48.122;11.538;2024-03-23T05:02:13;2.30;;;1.23;;
47519;SDS011;33252;48.122;11.538;2024-03-23T05:04:39;2.63;;;1.20;;
47519;SDS011;33252;48.122;11.538;2024-03-23T05:07:05;3.70;;;1.23;;
47519;SDS011;33252;48.122;11.538;2024-03-23T05:09:31;2.58;;;0.93;;
47519;SDS011;33252;48.122;11.538;2024-03-23T05:11:58;2.83;;;0.90;;
47519;SDS011;33252;48.122;11.538;2024-03-23T05:14:25;1.38;;;1.10;;
47519;SDS011;33252;48.122;11.538;2024-03-23T05:16:51;5.15;;;1.10;;
47519;SDS011;33252;48.122;11.538;2024-03-23T05:19:17;5.00;;;1.20;;
47519;SDS011;33252;48.122;11.538;2024-03-23T05:21:43;3.28;;;1.45;;
47519;SDS011;33252;48.122;11.538;2024-03-23T05:24:08;2.15;;;1.20;;
47519;SDS011;33252;48.122;11.538;2024-03-23T05:26:34;3.63;;;1.55;;
47519;SDS011;33252;48.122;11.538;2024-03-23T05:29:00;2.70;;;1.90;;
47519;SDS011;33252;48.122;11.538;2024-03-23T05:31:27;2.38;;;1.30;;
47519;SDS011;33252;48.122;11.538;2024-03-23T05:33:54;2.78;;;1.45;;
47519;SDS011;33252;48.122;11.538;2024-03-23T05:36:19;1.98;;;1.20;;
47519;SDS011;33252;48.122;11.538;2024-03-23T05:38:45;2.20;;;1.58;;
47519;SDS011;33252;48.122;11.538;2024-03-23T05:41:11;3.60;;;1.48;;
47519;SDS011;33252;48.122;11.538;2024-03-23T05:43:37;7.28;;;3.67;;
47519;SDS011;33252;48.122;11.538;2024-03-23T05:46:03;2.60;;;1.35;;
47519;SDS011;33252;48.122;11.538;2024-03-23T05:48:30;2.85;;;1.35;;
47519;SDS011;33252;48.122;11.538;2024-03-23T05:50:56;2.67;;;1.48;;
47519;SDS011;33252;48.122;11.538;2024-03-23T05:53:22;3.40;;;1.38;;
47519;SDS011;33252;48.122;11.538;2024-03-23T05:55:48;2.33;;;1.38;;
47519;SDS011;33252;48.122;11.538;2024-03-23T05:58:15;2.25;;;1.25;;
47519;SDS011;33252;48.122;11.538;2024-03-23T06:00:41;1.83;;;1.17;;
47519;SDS011;33252;48.122;11.538;2024-03-23T06:03:07;4.07;;;1.58;;
47519;SDS011;33252;48.122;11.538;2024-03-23T06:05:33;2.75;;;1.40;;
47519;SDS011;33252;48.122;11.538;2024-03-23T06:07:59;1.75;;;0.95;;
47519;SDS011;33252;48.122;11.538;2024-03-23T06:10:24;2.35;;;1.08;;
47519;SDS011;33252;48.122;11.538;2024-03-23T06:12:50;2.08;;;1.27;;
47519;SDS011;33252;48.122;11.538;2024-03-23T06:15:17;1.88;;;0.80;;
47519;SDS011;33252;48.122;11.538;2024-03-23T06:17:43;4.35;;;0.95;;
47519;SDS011;33252;48.122;11.538;2024-03-23T06:20:09;1.63;;;1.05;;
47519;SDS011;33252;48.122;11.538;2024-03-23T06:22:35;1.42;;;0.80;;
47519;SDS011;33252;48.122;11.538;2024-03-23T06:25:01;1.63;;;0.85;;
47519;SDS011;33252;48.122;11.538;2024-03-23T06:27:26;2.08;;;0.70;;
47519;SDS011;33252;48.122;11.538;2024-03-23T06:29:52;1.70;;;0.63;;
47519;SDS011;33252;48.122;11.538;2024-03-23T06:32:18;1.98;;;0.85;;
47519;SDS011;33252;48.122;11.538;2024-03-23T06:34:43;2.20;;;0.90;;
47519;SDS011;33252;48.122;11.538;2024-03-23T06:37:09;3.15;;;0.90;;
47519;SDS011;33252;48.122;11.538;2024-03-23T06:39:36;1.55;;;0.50;;
47519;SDS011;33252;48.122;11.538;2024-03-23T06:42:02;2.50;;;0.80;;
47519;SDS011;33252;48.122;11.538;2024-03-23T06:44:27;4.10;;;1.05;;
47519;SDS011;33252;48.122;11.538;2024-03-23T06:46:54;1.20;;;0.90;;
47519;SDS011;33252;48.122;11.538;2024-03-23T06:49:19;2.97;;;1.00;;
47519;SDS011;33252;48.122;11.538;2024-03-23T06:51:45;2.05;;;1.13;;
47519;SDS011;33252;48.122;11.538;2024-03-23T06:54:11;2.33;;;0.90;;
47519;SDS011;33252;48.122;11.538;2024-03-23T06:56:37;2.08;;;0.80;;
47519;SDS011;33252;48.122;11.538;2024-03-23T06:59:03;3.33;;;0.95;;
47519;SDS011;33252;48.122;11.538;2024-03-23T07:01:28;2.72;;;0.75;;
47519;SDS011;33252;48.122;11.538;2024-03-23T07:03:54;2.67;;;0.85;;
47519;SDS011;33252;48.122;11.538;2024-03-23T07:06:20;2.70;;;0.70;;
47519;SDS011;33252;48.122;11.538;2024-03-23T07:08:45;1.45;;;0.80;;
47519;SDS011;33252;48.122;11.538;2024-03-23T07:11:11;2.13;;;1.13;;
47519;SDS011;33252;48.122;11.538;2024-03-23T07:13:36;2.65;;;0.82;;
47519;SDS011;33252;48.122;11.538;2024-03-23T07:16:02;1.30;;;0.77;;
47519;SDS011;33252;48.122;11.538;2024-03-23T07:18:28;2.20;;;0.95;;
47519;SDS011;33252;48.122;11.538;2024-03-23T07:20:54;1.35;;;0.80;;
47519;SDS011;33252;48.122;11.538;2024-03-23T07:23:21;5.45;;;0.80;;
47519;SDS011;33252;48.122;11.538;2024-03-23T07:25:55;5.30;;;0.82;;
47519;SDS011;33252;48.122;11.538;2024-03-23T07:28:25;2.72;;;1.05;;
47519;SDS011;33252;48.122;11.538;2024-03-23T07:31:01;1.45;;;0.82;;
47519;SDS011;33252;48.122;11.538;2024-03-23T07:33:30;2.95;;;0.80;;
47519;SDS011;33252;48.122;11.538;2024-03-23T07:35:57;2.97;;;1.10;;
47519;SDS011;33252;48.122;11.538;2024-03-23T07:38:25;1.20;;;0.80;;
47519;SDS011;33252;48.122;11.538;2024-03-23T07:40:52;4.00;;;1.00;;
47519;SDS011;33252;48.122;11.538;2024-03-23T07:43:21;2.50;;;0.90;;
47519;SDS011;33252;48.122;11.538;2024-03-23T07:45:53;3.33;;;1.70;;
47519;SDS011;33252;48.122;11.538;2024-03-23T07:48:18;1.92;;;1.52;;
47519;SDS011;33252;48.122;11.538;2024-03-23T07:50:47;3.00;;;2.20;;
47519;SDS011;33252;48.122;11.538;2024-03-23T07:53:34;2.33;;;1.55;;
47519;SDS011;33252;48.122;11.538;2024-03-23T07:56:01;2.33;;;0.80;;
47519;SDS011;33252;48.122;11.538;2024-03-23T07:58:31;2.88;;;1.20;;
47519;SDS011;33252;48.122;11.538;2024-03-23T08:01:03;2.70;;;2.33;;
47519;SDS011;33252;48.122;11.538;2024-03-23T08:03:30;2.75;;;1.08;;
47519;SDS011;33252;48.122;11.538;2024-03-23T08:05:55;3.53;;;1.67;;
47519;SDS011;33252;48.122;11.538;2024-03-23T08:08:21;4.95;;;1.40;;
47519;SDS011;33252;48.122;11.538;2024-03-23T08:10:50;3.38;;;1.27;;
47519;SDS011;33252;48.122;11.538;2024-03-23T08:13:17;2.55;;;1.25;;
47519;SDS011;33252;48.122;11.538;2024-03-23T08:15:43;1.52;;;1.00;;
47519;SDS011;33252;48.122;11.538;2024-03-23T08:18:10;4.72;;;1.77;;
47519;SDS011;33252;48.122;11.538;2024-03-23T08:20:36;3.20;;;1.77;;
47519;SDS011;33252;48.122;11.538;2024-03-23T08:23:02;2.17;;;1.52;;
47519;SDS011;33252;48.122;11.538;2024-03-23T08:25:30;4.15;;;1.77;;
47519;SDS011;33252;48.122;11.538;2024-03-23T08:27:56;3.33;;;1.70;;
47519;SDS011;33252;48.122;11.538;2024-03-23T08:30:22;7.13;;;1.77;;
47519;SDS011;33252;48.122;11.538;2024-03-23T08:32:48;1.92;;;1.23;;
47519;SDS011;33252;48.122;11.538;2024-03-23T08:35:13;2.60;;;1.65;;
47519;SDS011;33252;48.122;11.538;2024-03-23T08:37:39;4.22;;;1.50;;
47519;SDS011;33252;48.122;11.538;2024-03-23T08:40:04;2.03;;;1.17;;
47519;SDS011;33252;48.122;11.538;2024-03-23T08:42:31;4.28;;;1.40;;
47519;SDS011;33252;48.122;11.538;2024-03-23T08:44:56;3.38;;;1.70;;
47519;SDS011;33252;48.122;11.538;2024-03-23T08:47:22;2.83;;;1.23;;
47519;SDS011;33252;48.122;11.538;2024-03-23T08:49:47;2.35;;;1.20;;
47519;SDS011;33252;48.122;11.538;2024-03-23T08:52:13;2.45;;;1.52;;
47519;SDS011;33252;48.122;11.538;2024-03-23T08:54:39;4.43;;;2.50;;
47519;SDS011;33252;48.122;11.538;2024-03-23T08:57:04;2.08;;;1.35;;
47519;SDS011;33252;48.122;11.538;2024-03-23T08:59:30;4.40;;;1.63;;
47519;SDS011;33252;48.122;11.538;2024-03-23T09:01:55;3.35;;;2.28;;
47519;SDS011;33252;48.122;11.538;2024-03-23T09:04:21;3.30;;;1.75;;
47519;SDS011;33252;48.122;11.538;2024-03-23T09:06:46;3.88;;;1.83;;
47519;SDS011;33252;48.122;11.538;2024-03-23T09:09:12;4.05;;;2.42;;
47519;SDS011;33252;48.122;11.538;2024-03-23T09:11:37;4.07;;;2.05;;
47519;SDS011;33252;48.122;11.538;2024-03-23T09:14:03;4.32;;;2.13;;
47519;SDS011;33252;48.122;11.538;2024-03-23T09:16:29;2.60;;;1.77;;
47519;SDS011;33252;48.122;11.538;2024-03-23T09:18:54;2.65;;;2.03;;
47519;SDS011;33252;48.122;11.538;2024-03-23T09:21:20;3.15;;;2.15;;
47519;SDS011;33252;48.122;11.538;2024-03-23T09:23:46;3.72;;;2.00;;
47519;SDS011;33252;48.122;11.538;2024-03-23T09:26:11;4.03;;;2.42;;
47519;SDS011;33252;48.122;11.538;2024-03-23T09:28:37;3.25;;;1.75;;
47519;SDS011;33252;48.122;11.538;2024-03-23T09:31:06;3.45;;;1.88;;
47519;SDS011;33252;48.122;11.538;2024-03-23T09:33:34;2.55;;;1.23;;
47519;SDS011;33252;48.122;11.538;2024-03-23T09:36:06;3.80;;;1.50;;
47519;SDS011;33252;48.122;11.538;2024-03-23T09:38:32;1.38;;;0.77;;
47519;SDS011;33252;48.122;11.538;2024-03-23T09:40:59;3.00;;;0.80;;
47519;SDS011;33252;48.122;11.538;2024-03-23T09:43:24;2.25;;;0.90;;
47519;SDS011;33252;48.122;11.538;2024-03-23T09:45:50;1.00;;;0.60;;
47519;SDS011;33252;48.122;11.538;2024-03-23T09:48:17;1.55;;;0.55;;
47519;SDS011;33252;48.122;11.538;2024-03-23T09:50:44;1.80;;;0.70;;
47519;SDS011;33252;48.122;11.538;2024-03-23T09:53:11;1.77;;;0.77;;
47519;SDS011;33252;48.122;11.538;2024-03-23T09:55:38;2.17;;;0.80;;
47519;SDS011;33252;48.122;11.538;2024-03-23T09:58:04;0.70;;;0.40;;
47519;SDS011;33252;48.122;11.538;2024-03-23T10:00:31;0.85;;;0.45;;
47519;SDS011;33252;48.122;11.538;2024-03-23T10:03:00;1.05;;;0.40;;
47519;SDS011;33252;48.122;11.538;2024-03-23T10:05:29;1.07;;;0.50;;
47519;SDS011;33252;48.122;11.538;2024-03-23T10:10:38;0.75;;;0.43;;
47519;SDS011;33252;48.122;11.538;2024-03-23T10:13:04;1.38;;;0.65;;
47519;SDS011;33252;48.122;11.538;2024-03-23T10:15:30;2.58;;;1.23;;
47519;SDS011;33252;48.122;11.538;2024-03-23T10:18:02;2.03;;;0.63;;
47519;SDS011;33252;48.122;11.538;2024-03-23T10:20:51;0.95;;;0.45;;
47519;SDS011;33252;48.122;11.538;2024-03-23T10:23:18;0.80;;;0.40;;
47519;SDS011;33252;48.122;11.538;2024-03-23T10:25:44;1.10;;;0.38;;
47519;SDS011;33252;48.122;11.538;2024-03-23T10:28:11;0.55;;;0.25;;
47519;SDS011;33252;48.122;11.538;2024-03-23T10:30:37;0.55;;;0.35;;
47519;SDS011;33252;48.122;11.538;2024-03-23T10:33:09;1.27;;;0.35;;
47519;SDS011;33252;48.122;11.538;2024-03-23T10:35:36;0.60;;;0.22;;
47519;SDS011;33252;48.122;11.538;2024-03-23T10:38:06;3.70;;;0.50;;
47519;SDS011;33252;48.122;11.538;2024-03-23T10:40:35;1.58;;;0.40;;
47519;SDS011;33252;48.122;11.538;2024-03-23T10:43:02;0.95;;;0.40;;
47519;SDS011;33252;48.122;11.538;2024-03-23T10:45:29;0.95;;;0.45;;
47519;SDS011;33252;48.122;11.538;2024-03-23T10:47:55;1.85;;;0.20;;
47519;SDS011;33252;48.122;11.538;2024-03-23T10:50:21;2.25;;;0.20;;
47519;SDS011;33252;48.122;11.538;2024-03-23T10:52:47;0.40;;;0.20;;
47519;SDS011;33252;48.122;11.538;2024-03-23T10:55:14;0.80;;;0.20;;
47519;SDS011;33252;48.122;11.538;2024-03-23T10:57:48;0.65;;;0.20;;
47519;SDS011;33252;48.122;11.538;2024-03-23T11:00:16;0.65;;;0.63;;
47519;SDS011;33252;48.122;11.538;2024-03-23T11:02:42;0.40;;;0.10;;
47519;SDS011;33252;48.122;11.538;2024-03-23T11:08:11;1.67;;;0.50;;
47519;SDS011;33252;48.122;11.538;2024-03-23T11:11:08;3.30;;;0.32;;
47519;SDS011;33252;48.122;11.538;2024-03-23T11:13:37;2.03;;;0.30;;
47519;SDS011;33252;48.122;11.538;2024-03-23T11:22:01;0.80;;;0.30;;
47519;SDS011;33252;48.122;11.538;2024-03-23T11:24:27;1.10;;;0.20;;
47519;SDS011;33252;48.122;11.538;2024-03-23T11:26:52;1.95;;;0.32;;
47519;SDS011;33252;48.122;11.538;2024-03-23T11:29:19;1.48;;;0.63;;
47519;SDS011;33252;48.122;11.538;2024-03-23T11:31:48;1.35;;;0.38;;
47519;SDS011;33252;48.122;11.538;2024-03-23T11:34:18;1.45;;;0.30;;
47519;SDS011;33252;48.122;11.538;2024-03-23T11:36:44;0.98;;;0.40;;
47519;SDS011;33252;48.122;11.538;2024-03-23T11:39:20;0.95;;;0.40;;
47519;SDS011;33252;48.122;11.538;2024-03-23T11:41:49;1.88;;;0.50;;
47519;SDS011;33252;48.122;11.538;2024-03-23T11:46:41;2.53;;;0.38;;
47519;SDS011;33252;48.122;11.538;2024-03-23T11:49:06;1.40;;;0.40;;
47519;SDS011;33252;48.122;11.538;2024-03-23T11:51:44;1.00;;;0.47;;
47519;SDS011;33252;48.122;11.538;2024-03-23T11:54:09;0.60;;;0.30;;
47519;SDS011;33252;48.122;11.538;2024-03-23T11:56:35;1.55;;;0.50;;
47519;SDS011;33252;48.122;11.538;2024-03-23T11:59:00;1.10;;;0.80;;
47519;SDS011;33252;48.122;11.538;2024-03-23T12:01:26;1.08;;;0.50;;
47519;SDS011;33252;48.122;11.538;2024-03-23T12:03:52;3.28;;;0.88;;
47519;SDS011;33252;48.122;11.538;2024-03-23T12:06:19;0.90;;;0.40;;
47519;SDS011;33252;48.122;11.538;2024-03-23T12:08:45;0.80;;;0.38;;
47519;SDS011;33252;48.122;11.538;2024-03-23T12:11:14;1.00;;;0.60;;
47519;SDS011;33252;48.122;11.538;2024-03-23T12:13:41;0.95;;;0.50;;
47519;SDS011;33252;48.122;11.538;2024-03-23T12:16:13;1.40;;;0.50;;
47519;SDS011;33252;48.122;11.538;2024-03-23T12:18:40;2.17;;;0.80;;
47519;SDS011;33252;48.122;11.538;2024-03-23T12:21:07;1.63;;;0.60;;
47519;SDS011;33252;48.122;11.538;2024-03-23T12:23:33;2.33;;;0.65;;
47519;SDS011;33252;48.122;11.538;2024-03-23T12:26:00;2.03;;;0.50;;
47519;SDS011;33252;48.122;11.538;2024-03-23T12:28:26;2.78;;;1.02;;
47519;SDS011;33252;48.122;11.538;2024-03-23T12:30:52;2.97;;;1.00;;
47519;SDS011;33252;48.122;11.538;2024-03-23T12:33:19;2.83;;;1.10;;
47519;SDS011;33252;48.122;11.538;2024-03-23T12:35:48;6.10;;;1.00;;
47519;SDS011;33252;48.122;11.538;2024-03-23T12:38:14;2.20;;;1.55;;
47519;SDS011;33252;48.122;11.538;2024-03-23T12:40:41;1.88;;;0.93;;
47519;SDS011;33252;48.122;11.538;2024-03-23T12:43:07;4.85;;;0.85;;
47519;SDS011;33252;48.122;11.538;2024-03-23T12:45:32;3.42;;;0.85;;
47519;SDS011;33252;48.122;11.538;2024-03-23T12:47:58;3.03;;;1.42;;
47519;SDS011;33252;48.122;11.538;2024-03-23T12:50:24;2.42;;;1.00;;
47519;SDS011;33252;48.122;11.538;2024-03-23T12:52:49;5.68;;;1.42;;
47519;SDS011;33252;48.122;11.538;2024-03-23T12:55:15;3.63;;;1.08;;
47519;SDS011;33252;48.122;11.538;2024-03-23T12:57:40;3.60;;;1.50;;
47519;SDS011;33252;48.122;11.538;2024-03-23T13:00:06;4.30;;;0.90;;
47519;SDS011;33252;48.122;11.538;2024-03-23T13:02:34;2.63;;;0.90;;
47519;SDS011;33252;48.122;11.538;2024-03-23T13:05:00;2.95;;;1.17;;
47519;SDS011;33252;48.122;11.538;2024-03-23T13:07:26;1.63;;;0.98;;
47519;SDS011;33252;48.122;11.538;2024-03-23T13:09:51;3.20;;;1.15;;
47519;SDS011;33252;48.122;11.538;2024-03-23T13:12:21;3.67;;;1.33;;
47519;SDS011;33252;48.122;11.538;2024-03-23T13:14:46;3.45;;;0.93;;
47519;SDS011;33252;48.122;11.538;2024-03-23T13:17:12;7.57;;;1.25;;
47519;SDS011;33252;48.122;11.538;2024-03-23T13:19:38;4.28;;;1.10;;
47519;SDS011;33252;48.122;11.538;2024-03-23T13:22:04;2.20;;;0.88;;
47519;SDS011;33252;48.122;11.538;2024-03-23T13:24:30;2.00;;;0.93;;
47519;SDS011;33252;48.122;11.538;2024-03-23T13:26:56;2.60;;;1.08;;
47519;SDS011;33252;48.122;11.538;2024-03-23T13:29:22;5.75;;;1.17;;
47519;SDS011;33252;48.122;11.538;2024-03-23T13:31:49;5.10;;;1.10;;
47519;SDS011;33252;48.122;11.538;2024-03-23T13:34:15;3.38;;;1.00;;
47519;SDS011;33252;48.122;11.538;2024-03-23T13:36:42;3.97;;;1.17;;
47519;SDS011;33252;48.122;11.538;2024-03-23T13:39:11;4.57;;;1.08;;
47519;SDS011;33252;48.122;11.538;2024-03-23T13:41:40;5.05;;;1.15;;
47519;SDS011;33252;48.122;11.538;2024-03-23T13:44:07;2.33;;;1.10;;
47519;SDS011;33252;48.122;11.538;2024-03-23T13:46:35;2.75;;;1.10;;
47519;SDS011;33252;48.122;11.538;2024-03-23T13:49:01;1.80;;;1.08;;
47519;SDS011;33252;48.122;11.538;2024-03-23T13:51:27;4.55;;;1.60;;
47519;SDS011;33252;48.122;11.538;2024-03-23T13:53:56;4.38;;;1.30;;
47519;SDS011;33252;48.122;11.538;2024-03-23T13:56:22;2.75;;;1.13;;
47519;SDS011;33252;48.122;11.538;2024-03-23T13:58:48;3.83;;;1.23;;
47519;SDS011;33252;48.122;11.538;2024-03-23T14:01:14;3.47;;;1.48;;
47519;SDS011;33252;48.122;11.538;2024-03-23T14:03:40;2.50;;;1.70;;
47519;SDS011;33252;48.122;11.538;2024-03-23T14:06:06;6.32;;;2.72;;
47519;SDS011;33252;48.122;11.538;2024-03-23T14:08:33;6.25;;;2.25;;
47519;SDS011;33252;48.122;11.538;2024-03-23T14:11:04;3.15;;;2.03;;
47519;SDS011;33252;48.122;11.538;2024-03-23T14:13:31;6.43;;;2.22;;
47519;SDS011;33252;48.122;11.538;2024-03-23T14:15:57;5.82;;;2.20;;
47519;SDS011;33252;48.122;11.538;2024-03-23T14:18:23;3.28;;;1.98;;
47519;SDS011;33252;48.122;11.538;2024-03-23T14:20:49;6.13;;;2.42;;
47519;SDS011;33252;48.122;11.538;2024-03-23T14:23:15;3.17;;;1.35;;
47519;SDS011;33252;48.122;11.538;2024-03-23T14:25:41;4.25;;;2.25;;
47519;SDS011;33252;48.122;11.538;2024-03-23T14:28:06;4.45;;;2.10;;
47519;SDS011;33252;48.122;11.538;2024-03-23T14:30:38;5.07;;;2.25;;
47519;SDS011;33252;48.122;11.538;2024-03-23T14:33:04;5.75;;;1.92;;
47519;SDS011;33252;48.122;11.538;2024-03-23T14:35:29;7.63;;;2.38;;
47519;SDS011;33252;48.122;11.538;2024-03-23T14:37:56;3.95;;;2.00;;
47519;SDS011;33252;48.122;11.538;2024-03-23T14:40:21;5.85;;;2.03;;
47519;SDS011;33252;48.122;11.538;2024-03-23T14:42:47;7.15;;;2.03;;
47519;SDS011;33252;48.122;11.538;2024-03-23T14:45:12;5.35;;;2.10;;
47519;SDS011;33252;48.122;11.538;2024-03-23T14:47:40;6.03;;;1.50;;
47519;SDS011;33252;48.122;11.538;2024-03-23T14:50:07;4.18;;;1.45;;
47519;SDS011;33252;48.122;11.538;2024-03-23T14:52:33;5.18;;;1.15;;
47519;SDS011;33252;48.122;11.538;2024-03-23T14:54:59;6.68;;;1.25;;
47519;SDS011;33252;48.122;11.538;2024-03-23T14:57:25;3.28;;;0.50;;
47519;SDS011;33252;48.122;11.538;2024-03-23T14:59:51;2.05;;;0.73;;
47519;SDS011;33252;48.122;11.538;2024-03-23T15:02:17;3.53;;;0.82;;
47519;SDS011;33252;48.122;11.538;2024-03-23T15:04:42;2.88;;;0.93;;
47519;SDS011;33252;48.122;11.538;2024-03-23T15:07:08;4.30;;;0.82;;
47519;SDS011;33252;48.122;11.538;2024-03-23T15:09:33;3.97;;;0.88;;
47519;SDS011;33252;48.122;11.538;2024-03-23T15:11:59;5.90;;;0.80;;
47519;SDS011;33252;48.122;11.538;2024-03-23T15:14:24;4.53;;;1.90;;
47519;SDS011;33252;48.122;11.538;2024-03-23T15:16:50;3.28;;;1.25;;
47519;SDS011;33252;48.122;11.538;2024-03-23T15:19:17;3.65;;;1.70;;
47519;SDS011;33252;48.122;11.538;2024-03-23T15:21:43;4.18;;;1.27;;
47519;SDS011;33252;48.122;11.538;2024-03-23T15:24:09;1.83;;;1.23;;
47519;SDS011;33252;48.122;11.538;2024-03-23T15:26:37;3.35;;;1.50;;
47519;SDS011;33252;48.122;11.538;2024-03-23T15:29:03;8.45;;;2.00;;
47519;SDS011;33252;48.122;11.538;2024-03-23T15:31:36;3.63;;;1.10;;
47519;SDS011;33252;48.122;11.538;2024-03-23T15:34:02;3.83;;;1.23;;
47519;SDS011;33252;48.122;11.538;2024-03-23T15:36:29;5.38;;;1.40;;